Time;durP1;ratioP1;P1;durP2;ratioP2;P2;SDS_P1;SDS_P2;PMS_P1;PMS_P2;Temp;Humidity;BMP_temperature;BMP_pressure;BME280_temperature;BME280_humidity;BME280_pressure;Samples;Min_cycle;Max_cycle;Signal;HPM_P1;HPM_P2
2021/09/19 00:00:16;;;;;;;3.97;2.85;;;;;;;11.54;100.00;101176.31;4970331;28;20038;-80
2021/09/19 00:02:45;;;;;;;5.47;3.50;;;;;;;11.53;100.00;101182.50;4937552;28;20495;-80
2021/09/19 00:05:16;;;;;;;7.32;3.72;;;;;;;11.52;100.00;101183.41;4970824;28;20130;-80
2021/09/19 00:07:43;;;;;;;5.13;3.22;;;;;;;11.48;100.00;101174.63;4969197;28;20052;-80
2021/09/19 00:10:11;;;;;;;5.15;3.60;;;;;;;11.47;100.00;101177.31;4967767;28;20054;-81
2021/09/19 00:12:39;;;;;;;4.57;3.35;;;;;;;11.42;100.00;101172.06;4985819;28;21219;-81
2021/09/19 00:15:10;;;;;;;5.60;3.60;;;;;;;11.50;100.00;101166.66;4951603;28;20042;-80
2021/09/19 00:17:38;;;;;;;5.35;3.60;;;;;;;11.51;100.00;101165.75;4937821;28;20050;-81
2021/09/19 00:20:09;;;;;;;6.07;3.40;;;;;;;11.57;100.00;101163.03;4953802;28;20270;-81
2021/09/19 00:22:36;;;;;;;7.03;3.60;;;;;;;11.49;100.00;101164.91;4969667;28;20042;-81
2021/09/19 00:25:05;;;;;;;5.75;3.47;;;;;;;11.48;100.00;101166.69;4950157;28;20081;-82
2021/09/19 00:27:31;;;;;;;6.15;3.67;;;;;;;11.50;100.00;101170.19;4951885;28;20062;-83
2021/09/19 00:29:59;;;;;;;5.35;3.35;;;;;;;11.48;100.00;101169.34;4951325;28;20047;-81
2021/09/19 00:32:26;;;;;;;6.90;4.00;;;;;;;11.46;100.00;101170.28;4958664;28;20046;-81
2021/09/19 00:34:52;;;;;;;6.20;3.53;;;;;;;11.48;100.00;101171.13;4971885;28;20646;-81
2021/09/19 00:37:19;;;;;;;8.32;3.38;;;;;;;11.52;100.00;101167.53;4937071;28;20873;-81
2021/09/19 00:39:48;;;;;;;5.93;3.40;;;;;;;11.49;100.00;101163.13;4981839;28;20035;-80
2021/09/19 00:42:15;;;;;;;7.10;3.88;;;;;;;11.57;100.00;101170.97;4968409;28;20077;-81
2021/09/19 00:44:43;;;;;;;6.97;4.00;;;;;;;11.58;100.00;101170.06;4955085;28;20785;-80
2021/09/19 00:47:10;;;;;;;5.70;3.65;;;;;;;11.52;100.00;101171.06;4953605;28;20149;-82
2021/09/19 00:49:37;;;;;;;5.93;3.80;;;;;;;11.46;100.00;101165.84;4936869;28;20052;-80
2021/09/19 00:52:04;;;;;;;6.78;3.83;;;;;;;11.48;100.00;101160.53;4952154;28;20570;-79
2021/09/19 00:54:38;;;;;;;6.45;3.50;;;;;;;11.40;100.00;101162.41;4984396;28;20042;-80
2021/09/19 00:57:08;;;;;;;5.82;3.63;;;;;;;11.37;100.00;101151.91;4970520;28;20039;-80
2021/09/19 00:59:38;;;;;;;7.90;3.58;;;;;;;11.41;100.00;101153.59;4971221;28;20042;-81
2021/09/19 01:02:05;;;;;;;6.13;3.28;;;;;;;11.44;100.00;101151.78;4947945;28;20049;-81
2021/09/19 01:04:33;;;;;;;5.65;4.03;;;;;;;11.43;100.00;101139.41;4959361;28;20042;-81
2021/09/19 01:07:03;;;;;;;6.35;3.67;;;;;;;11.44;100.00;101142.97;4960638;28;20051;-80
2021/09/19 01:09:37;;;;;;;4.53;3.22;;;;;;;11.38;100.00;101141.28;4959415;28;20048;-80
2021/09/19 01:12:04;;;;;;;5.88;3.65;;;;;;;11.39;100.00;101140.38;4974614;28;20137;-80
2021/09/19 01:14:31;;;;;;;5.22;3.30;;;;;;;11.37;100.00;101130.72;4975795;28;20034;-80
2021/09/19 01:16:58;;;;;;;5.50;3.70;;;;;;;11.36;100.00;101134.28;4957298;28;20073;-81
2021/09/19 01:19:27;;;;;;;5.50;3.90;;;;;;;11.37;100.00;101136.03;4975140;28;20080;-80
2021/09/19 01:21:54;;;;;;;8.73;3.50;;;;;;;11.49;100.00;101141.09;4974957;28;20038;-81
2021/09/19 01:24:21;;;;;;;9.05;3.95;;;;;;;11.44;100.00;101140.31;4975125;28;20058;-82
2021/09/19 01:26:48;;;;;;;6.28;3.85;;;;;;;11.31;100.00;101134.34;4971588;28;20125;-81
2021/09/19 01:29:14;;;;;;;6.05;3.30;;;;;;;11.35;100.00;101132.50;4974543;28;20081;-80
2021/09/19 01:31:41;;;;;;;6.63;3.65;;;;;;;11.34;100.00;101133.41;4991851;28;20113;-82
2021/09/19 01:34:08;;;;;;;5.45;3.65;;;;;;;11.37;100.00;101136.03;4944765;28;20046;-81
2021/09/19 01:36:36;;;;;;;9.13;3.67;;;;;;;11.37;100.00;101134.25;4943524;28;20537;-80
2021/09/19 01:39:08;;;;;;;7.40;4.07;;;;;;;11.42;100.00;101136.81;4941717;28;20069;-80
2021/09/19 01:41:35;;;;;;;6.18;3.90;;;;;;;11.35;100.00;101140.44;4956275;28;20038;-80
2021/09/19 01:44:04;;;;;;;5.97;3.80;;;;;;;11.28;100.00;101139.69;4943381;28;20056;-80
2021/09/19 01:46:33;;;;;;;6.07;3.70;;;;;;;11.29;100.00;101133.50;4959787;28;20042;-80
2021/09/19 01:49:00;;;;;;;5.80;3.63;;;;;;;11.26;100.00;101134.41;4958216;28;20138;-81
2021/09/19 01:51:27;;;;;;;5.35;3.40;;;;;;;11.30;100.00;101135.25;4959608;28;20042;-81
2021/09/19 01:53:54;;;;;;;5.40;3.33;;;;;;;11.28;100.00;101131.75;4975912;28;20027;-82
2021/09/19 01:56:29;;;;;;;5.93;4.00;;;;;;;11.30;100.00;101131.72;4960895;28;20380;-81
2021/09/19 01:58:56;;;;;;;6.95;3.60;;;;;;;11.31;100.00;101129.06;4975579;28;20047;-83
2021/09/19 02:01:28;;;;;;;4.72;3.22;;;;;;;11.26;100.00;101128.25;4959343;28;20503;-83
2021/09/19 02:03:56;;;;;;;4.95;3.58;;;;;;;11.26;100.00;101128.25;4953038;28;20039;-82
2021/09/19 02:06:23;;;;;;;6.15;3.63;;;;;;;11.26;100.00;101126.47;4957424;28;20084;-82
2021/09/19 02:08:51;;;;;;;6.15;3.63;;;;;;;11.26;100.00;101126.47;4972221;28;20046;-84
2021/09/19 02:11:20;;;;;;;4.55;3.40;;;;;;;11.22;100.00;101127.44;4973714;28;20050;-84
2021/09/19 02:13:47;;;;;;;6.10;3.63;;;;;;;11.26;100.00;101126.47;4940675;28;20035;-83
2021/09/19 02:16:15;;;;;;;7.32;3.92;;;;;;;11.22;100.00;101114.19;4941417;28;20427;-83
2021/09/19 02:18:45;;;;;;;7.03;3.90;;;;;;;11.23;100.00;101121.25;4957253;28;20038;-83
2021/09/19 02:21:13;;;;;;;5.85;3.92;;;;;;;11.21;100.00;101117.75;4972486;28;20042;-83
2021/09/19 02:23:39;;;;;;;5.75;3.70;;;;;;;11.27;100.00;101120.31;4956845;28;20046;-83
2021/09/19 02:26:08;;;;;;;7.85;3.88;;;;;;;11.19;100.00;101116.91;4957246;28;20097;-83
2021/09/19 02:28:35;;;;;;;6.95;4.05;;;;;;;11.20;100.00;101120.41;4971394;28;20462;-84
2021/09/19 02:31:02;;;;;;;7.53;4.30;;;;;;;11.18;100.00;101115.16;4973184;28;20046;-83
2021/09/19 02:33:29;;;;;;;4.50;3.55;;;;;;;11.20;100.00;101107.19;4970505;28;20050;-83
2021/09/19 02:35:56;;;;;;;7.43;3.97;;;;;;;11.26;100.00;101105.31;4973597;28;20574;-84
2021/09/19 02:38:23;;;;;;;6.10;3.67;;;;;;;11.20;100.00;101105.44;4972708;28;20042;-83
2021/09/19 02:40:51;;;;;;;7.03;3.80;;;;;;;11.16;100.00;101095.78;4957222;28;20100;-84
2021/09/19 02:43:22;;;;;;;6.18;3.50;;;;;;;11.10;100.00;101095.91;4961404;28;20057;-83
2021/09/19 02:45:49;;;;;;;6.03;3.08;;;;;;;11.21;100.00;101101.00;4957190;28;20380;-83
2021/09/19 02:48:16;;;;;;;9.07;3.67;;;;;;;11.23;100.00;101096.56;4971873;28;20061;-84
2021/09/19 02:50:43;;;;;;;7.05;3.92;;;;;;;11.14;100.00;101099.34;4974023;28;20038;-83
2021/09/19 02:53:10;;;;;;;6.10;4.15;;;;;;;11.14;100.00;101100.22;4978878;28;20470;-84
2021/09/19 02:55:37;;;;;;;7.57;3.85;;;;;;;11.08;100.00;101094.16;4956494;28;20057;-83
2021/09/19 02:58:03;;;;;;;6.20;4.38;;;;;;;11.10;100.00;101101.19;4940179;28;20054;-83
2021/09/19 03:00:30;;;;;;;6.82;3.97;;;;;;;11.12;100.00;101094.09;4972373;28;20054;-84
2021/09/19 03:02:57;;;;;;;6.90;4.03;;;;;;;11.11;100.00;101100.28;4959013;28;20042;-83
2021/09/19 03:05:24;;;;;;;4.53;3.17;;;;;;;11.11;100.00;101089.72;4958121;28;20680;-83
2021/09/19 03:07:54;;;;;;;5.90;3.70;;;;;;;11.09;100.00;101085.31;4940955;28;20519;-83
2021/09/19 03:10:21;;;;;;;5.03;3.70;;;;;;;11.08;100.00;101097.66;4977085;28;20038;-83
2021/09/19 03:12:47;;;;;;;6.45;3.22;;;;;;;11.04;100.00;101089.81;4971810;28;20067;-82
2021/09/19 03:15:14;;;;;;;6.13;3.97;;;;;;;11.08;100.00;101087.09;4957750;28;20073;-82
2021/09/19 03:17:41;;;;;;;5.20;3.15;;;;;;;11.14;100.00;101096.72;4922036;28;20060;-83
2021/09/19 03:20:11;;;;;;;5.03;3.70;;;;;;;11.13;100.00;101098.47;4968383;28;20076;-83
2021/09/19 03:22:38;;;;;;;5.07;3.25;;;;;;;11.10;100.00;101095.91;4989309;28;20503;-83
2021/09/19 03:25:06;;;;;;;6.65;4.20;;;;;;;11.11;100.00;101099.41;4942202;28;20058;-84
2021/09/19 03:27:33;;;;;;;7.75;4.32;;;;;;;11.10;100.00;101103.84;4972470;28;20130;-83
2021/09/19 03:30:01;;;;;;;6.55;3.38;;;;;;;11.16;100.00;101098.41;4973454;28;20186;-83
2021/09/19 03:32:27;;;;;;;6.13;3.55;;;;;;;11.10;100.00;101098.53;4972329;28;20070;-83
2021/09/19 03:34:54;;;;;;;5.65;3.83;;;;;;;11.02;100.00;101103.06;4976617;28;20586;-83
2021/09/19 03:37:21;;;;;;;7.10;3.88;;;;;;;11.08;100.00;101102.09;4954304;28;20733;-84
2021/09/19 03:39:47;;;;;;;7.35;3.63;;;;;;;11.12;100.00;101102.03;4955489;28;20534;-83
2021/09/19 03:42:14;;;;;;;7.75;3.72;;;;;;;11.09;100.00;101101.19;4967391;28;20608;-82
2021/09/19 03:44:41;;;;;;;4.93;3.33;;;;;;;11.08;100.00;101100.31;4938093;28;20522;-83
2021/09/19 03:47:08;;;;;;;6.97;3.70;;;;;;;11.12;100.00;101095.88;4972056;28;20463;-83
2021/09/19 03:49:34;;;;;;;6.97;4.75;;;;;;;11.14;100.00;101094.94;4973507;28;20041;-82
2021/09/19 03:52:01;;;;;;;9.38;3.60;;;;;;;11.12;100.00;101101.16;4957642;28;20048;-82
2021/09/19 03:54:28;;;;;;;6.47;3.85;;;;;;;11.04;100.00;101097.75;4973874;28;20057;-83
2021/09/19 03:56:55;;;;;;;9.55;3.97;;;;;;;11.07;100.00;101092.41;4955585;28;20571;-83
2021/09/19 03:59:22;;;;;;;6.57;3.67;;;;;;;10.98;100.00;101088.13;4972280;28;20049;-82
2021/09/19 04:01:49;;;;;;;8.60;4.05;;;;;;;11.03;100.00;101094.25;4955959;28;20586;-83
2021/09/19 04:04:15;;;;;;;8.43;3.78;;;;;;;11.04;100.00;101095.97;4972070;28;20129;-82
2021/09/19 04:06:42;;;;;;;5.93;3.70;;;;;;;10.97;100.00;101089.03;4972335;28;20054;-83
2021/09/19 04:09:11;;;;;;;4.72;3.47;;;;;;;10.99;100.00;101088.09;4971075;28;20050;-83
2021/09/19 04:11:39;;;;;;;7.28;4.13;;;;;;;11.00;100.00;101091.63;4972237;28;20053;-83
2021/09/19 04:14:05;;;;;;;6.18;3.58;;;;;;;11.00;100.00;101100.44;4955236;28;20046;-82
2021/09/19 04:16:32;;;;;;;6.72;4.13;;;;;;;11.03;100.00;101101.31;4975601;28;20435;-83
2021/09/19 04:19:01;;;;;;;7.88;4.22;;;;;;;10.99;100.00;101097.81;4944860;28;20042;-83
2021/09/19 04:21:30;;;;;;;7.40;3.58;;;;;;;11.06;100.00;101102.13;4956120;28;20666;-84
2021/09/19 04:23:57;;;;;;;5.90;3.75;;;;;;;10.98;100.00;101104.00;4984583;28;20451;-83
2021/09/19 04:26:24;;;;;;;6.22;3.28;;;;;;;10.95;100.00;101112.00;4974084;28;20050;-82
2021/09/19 04:28:52;;;;;;;9.68;4.78;;;;;;;10.99;100.00;101116.31;4956000;28;20050;-83
2021/09/19 04:31:19;;;;;;;7.50;4.18;;;;;;;11.04;100.00;101117.13;4954106;28;20050;-83
2021/09/19 04:33:46;;;;;;;7.68;4.10;;;;;;;11.02;100.00;101118.06;4944695;28;20042;-82
2021/09/19 04:36:13;;;;;;;5.47;3.53;;;;;;;10.91;100.00;101123.50;4975021;28;20054;-82
2021/09/19 04:38:40;;;;;;;8.18;3.88;;;;;;;10.93;100.00;101132.25;4957110;28;20452;-84
2021/09/19 04:41:07;;;;;;;7.85;4.20;;;;;;;10.97;100.00;101134.84;4974049;28;20093;-82
2021/09/19 04:43:33;;;;;;;7.30;3.33;;;;;;;11.04;100.00;101125.06;4959970;28;20060;-81
2021/09/19 04:46:00;;;;;;;6.70;3.88;;;;;;;10.92;100.00;101128.75;4986529;28;20061;-83
2021/09/19 04:48:27;;;;;;;8.10;3.08;;;;;;;10.95;100.00;101134.00;4957532;28;20407;-81
2021/09/19 04:50:54;;;;;;;7.80;3.70;;;;;;;10.89;100.00;101131.44;4957343;28;20039;-81
2021/09/19 04:53:21;;;;;;;7.00;3.90;;;;;;;10.85;100.00;101129.75;4979430;28;20643;-81
2021/09/19 04:55:48;;;;;;;6.28;3.67;;;;;;;10.89;100.00;101134.09;4958581;28;20141;-82
2021/09/19 04:58:15;;;;;;;7.63;4.07;;;;;;;10.91;100.00;101128.78;4974824;28;20579;-82
2021/09/19 05:00:41;;;;;;;6.78;3.47;;;;;;;10.77;100.00;101134.28;4990383;28;20039;-81
2021/09/19 05:03:08;;;;;;;7.38;4.22;;;;;;;10.79;100.00;101137.75;4982303;28;20043;-82
2021/09/19 05:05:35;;;;;;;9.23;4.22;;;;;;;10.85;100.00;101137.69;4958326;28;20076;-82
2021/09/19 05:08:02;;;;;;;6.05;3.80;;;;;;;10.89;100.00;101134.09;4989272;28;20089;-83
2021/09/19 05:10:29;;;;;;;4.63;3.33;;;;;;;10.85;100.00;101129.75;4989336;28;20100;-81
2021/09/19 05:12:56;;;;;;;5.95;3.75;;;;;;;10.89;100.00;101127.94;4957262;28;20066;-81
2021/09/19 05:15:23;;;;;;;6.85;4.20;;;;;;;10.88;100.00;101129.69;4972438;28;20169;-83
2021/09/19 05:17:50;;;;;;;6.38;3.58;;;;;;;10.91;100.00;101136.72;4955735;28;20051;-81
2021/09/19 05:20:16;;;;;;;7.78;3.88;;;;;;;10.88;100.00;101135.00;4947950;28;20074;-81
2021/09/19 05:22:43;;;;;;;6.80;3.60;;;;;;;10.94;100.00;101132.28;4957329;28;20042;-81
2021/09/19 05:25:10;;;;;;;8.02;3.85;;;;;;;10.94;100.00;101131.41;4973300;28;20050;-81
2021/09/19 05:27:37;;;;;;;6.60;3.60;;;;;;;10.93;100.00;101133.16;4993561;23;20065;-80
2021/09/19 05:30:05;;;;;;;5.70;3.33;;;;;;;10.90;100.00;101132.31;5007663;28;20061;-84
2021/09/19 05:32:32;;;;;;;6.38;3.15;;;;;;;10.92;100.00;101130.53;4994194;28;20100;-82
2021/09/19 05:34:58;;;;;;;5.35;3.58;;;;;;;10.90;100.00;101127.03;4994205;28;20132;-84
2021/09/19 05:37:25;;;;;;;7.93;3.95;;;;;;;10.95;100.00;101128.72;4991623;28;20041;-84
2021/09/19 05:39:52;;;;;;;7.85;4.40;;;;;;;10.97;100.00;101128.69;5009020;28;20049;-84
2021/09/19 05:42:19;;;;;;;5.72;3.55;;;;;;;10.98;100.00;101122.50;4991760;28;20042;-81
2021/09/19 05:44:46;;;;;;;15.75;4.07;;;;;;;10.96;100.00;101127.81;4991076;28;20266;-82
2021/09/19 05:47:12;;;;;;;7.85;3.40;;;;;;;10.96;100.00;101121.66;5009602;28;20104;-84
2021/09/19 05:49:39;;;;;;;6.15;3.95;;;;;;;10.98;100.00;101130.44;4981530;28;20042;-83
2021/09/19 05:52:05;;;;;;;5.57;3.28;;;;;;;11.08;100.00;101124.13;5011695;28;20046;-83
2021/09/19 05:54:32;;;;;;;5.85;3.45;;;;;;;11.01;100.00;101133.03;5014068;28;20119;-85
2021/09/19 05:56:59;;;;;;;5.88;4.00;;;;;;;10.98;100.00;101127.78;5012335;28;20534;-82
2021/09/19 05:59:25;;;;;;;7.15;3.63;;;;;;;11.05;100.00;101126.81;4995845;28;20041;-84
2021/09/19 06:01:53;;;;;;;5.50;3.67;;;;;;;11.07;100.00;101132.94;4994950;28;20100;-85
2021/09/19 06:04:20;;;;;;;7.63;3.50;;;;;;;11.08;100.00;101131.16;5001636;28;20045;-83
2021/09/19 06:06:47;;;;;;;5.03;3.35;;;;;;;11.12;100.00;101125.81;4994340;28;20113;-83
2021/09/19 06:09:15;;;;;;;7.20;3.70;;;;;;;11.11;100.00;101125.84;4995090;28;20084;-81
2021/09/19 06:11:43;;;;;;;6.95;3.80;;;;;;;11.16;100.00;101130.16;4993844;28;20033;-84
2021/09/19 06:14:10;;;;;;;6.47;3.70;;;;;;;11.18;100.00;101125.75;5030690;28;20457;-82
2021/09/19 06:16:37;;;;;;;8.20;3.88;;;;;;;11.20;100.00;101115.13;5012872;28;20041;-82
2021/09/19 06:19:04;;;;;;;4.55;3.40;;;;;;;11.22;100.00;101122.13;4989201;28;20057;-83
2021/09/19 06:21:31;;;;;;;5.95;3.60;;;;;;;11.27;100.00;101127.38;5013130;28;20077;-82
2021/09/19 06:23:57;;;;;;;4.88;3.53;;;;;;;11.30;100.00;101124.66;4991666;28;20054;-82
2021/09/19 06:26:24;;;;;;;5.50;4.00;;;;;;;11.42;100.00;101136.81;4990759;28;20042;-82
2021/09/19 06:28:51;;;;;;;6.93;3.58;;;;;;;11.42;100.00;101131.50;4991028;28;20046;-84
2021/09/19 06:31:18;;;;;;;5.75;3.58;;;;;;;11.41;100.00;101127.13;5010082;28;20050;-80
2021/09/19 06:33:45;;;;;;;5.93;3.70;;;;;;;11.42;100.00;101126.22;4996868;28;20148;-82
2021/09/19 06:36:11;;;;;;;4.82;3.47;;;;;;;11.49;100.00;101134.03;4996170;28;20048;-83
2021/09/19 06:38:41;;;;;;;5.32;3.47;;;;;;;11.51;100.00;101132.22;4994867;28;20038;-80
2021/09/19 06:41:08;;;;;;;6.60;3.67;;;;;;;11.53;100.00;101137.53;5030441;28;20541;-83
2021/09/19 06:43:35;;;;;;;6.55;3.42;;;;;;;11.57;100.00;101132.13;5013692;28;20042;-82
2021/09/19 06:46:02;;;;;;;5.15;3.80;;;;;;;11.56;100.00;101140.09;5012815;28;20046;-83
2021/09/19 06:48:28;;;;;;;5.47;3.50;;;;;;;11.59;100.00;101129.47;4991314;28;20042;-82
2021/09/19 06:50:55;;;;;;;4.97;3.63;;;;;;;11.59;100.00;101133.88;4996214;28;20046;-82
2021/09/19 06:53:22;;;;;;;4.72;2.92;;;;;;;11.62;100.00;101134.72;4989214;28;20048;-83
2021/09/19 06:55:48;;;;;;;5.68;3.70;;;;;;;11.62;100.00;101137.38;5008507;28;20049;-82
2021/09/19 06:58:15;;;;;;;5.63;3.47;;;;;;;11.71;100.00;101138.97;5009409;28;20523;-83
2021/09/19 07:00:42;;;;;;;4.03;2.90;;;;;;;11.70;100.00;101132.81;4995036;28;20095;-83
2021/09/19 07:03:08;;;;;;;4.70;3.15;;;;;;;11.72;100.00;101141.59;4991633;28;20044;-83
2021/09/19 07:05:36;;;;;;;4.22;2.97;;;;;;;11.76;100.00;101142.41;5011438;28;20054;-83
2021/09/19 07:08:03;;;;;;;5.97;3.63;;;;;;;11.77;100.00;101149.44;4988115;28;20042;-83
2021/09/19 07:10:30;;;;;;;7.55;3.25;;;;;;;11.82;100.00;101152.91;5010872;28;20136;-83
2021/09/19 07:12:56;;;;;;;3.72;2.92;;;;;;;11.80;100.00;101147.66;4984084;28;20052;-83
2021/09/19 07:15:23;;;;;;;4.47;3.15;;;;;;;11.80;100.00;101144.13;5012486;28;20050;-83
2021/09/19 07:17:50;;;;;;;6.25;3.03;;;;;;;11.91;100.00;101151.88;4994001;28;20129;-84
2021/09/19 07:20:16;;;;;;;5.82;3.58;;;;;;;11.94;100.00;101146.53;4994870;28;20041;-83
2021/09/19 07:22:46;;;;;;;6.47;3.35;;;;;;;12.11;100.00;101144.47;5002266;28;20053;-84
2021/09/19 07:25:15;;;;;;;4.90;3.20;;;;;;;12.00;100.00;101146.41;5009966;28;20410;-84
2021/09/19 07:27:43;;;;;;;4.20;3.05;;;;;;;12.02;100.00;101145.50;4992646;28;20034;-83
2021/09/19 07:30:10;;;;;;;6.25;3.55;;;;;;;12.04;100.00;101148.13;4994134;28;20069;-84
2021/09/19 07:32:37;;;;;;;5.95;3.40;;;;;;;12.02;100.00;101149.91;4992215;28;20515;-84
2021/09/19 07:35:05;;;;;;;7.13;3.75;;;;;;;12.07;100.00;101148.94;5005903;28;20422;-86
2021/09/19 07:37:32;;;;;;;4.72;3.63;;;;;;;12.07;100.00;101148.06;4978449;28;20037;-84
2021/09/19 07:39:59;;;;;;;7.60;3.90;;;;;;;12.14;100.00;101154.13;4995831;28;20573;-85
2021/09/19 07:42:26;;;;;;;5.80;3.65;;;;;;;12.14;100.00;101149.69;4993937;28;20511;-84
2021/09/19 07:44:53;;;;;;;4.88;3.03;;;;;;;12.14;100.00;101154.13;5010219;28;20526;-84
2021/09/19 07:47:21;;;;;;;4.43;3.42;;;;;;;12.16;100.00;101153.19;4992224;28;20041;-82
2021/09/19 07:49:48;;;;;;;5.63;3.20;;;;;;;12.15;100.00;101155.84;4988171;28;20042;-83
2021/09/19 07:52:15;;;;;;;5.07;3.10;;;;;;;12.18;100.00;101150.50;4991900;28;20054;-86
2021/09/19 07:54:42;;;;;;;4.57;2.88;;;;;;;12.22;100.00;101145.13;4995423;28;20037;-83
2021/09/19 07:57:10;;;;;;;5.38;3.60;;;;;;;12.24;99.32;101151.25;4992115;28;20121;-84
2021/09/19 07:59:37;;;;;;;5.93;3.17;;;;;;;12.27;100.00;101156.47;4985069;28;20038;-83
2021/09/19 08:02:03;;;;;;;4.65;3.50;;;;;;;12.39;99.47;101158.03;5000136;28;20453;-82
2021/09/19 08:04:30;;;;;;;4.90;3.40;;;;;;;12.38;99.75;101151.00;5000674;28;20438;-83
2021/09/19 08:06:57;;;;;;;5.65;3.67;;;;;;;12.47;96.68;101152.59;4993378;28;20054;-84
2021/09/19 08:09:25;;;;;;;12.07;3.90;;;;;;;12.61;93.26;101143.44;5004423;28;20046;-82
2021/09/19 08:11:53;;;;;;;4.90;2.90;;;;;;;12.56;95.48;101144.44;4991890;28;20045;-83
2021/09/19 08:14:20;;;;;;;4.78;2.95;;;;;;;12.59;96.73;101147.88;5008518;28;20042;-81
2021/09/19 08:16:46;;;;;;;3.83;2.67;;;;;;;12.66;96.98;101153.94;5008273;28;20046;-81
2021/09/19 08:19:13;;;;;;;4.88;3.42;;;;;;;12.75;97.60;101150.22;4978277;28;20052;-82
2021/09/19 08:21:40;;;;;;;5.70;3.17;;;;;;;12.84;96.94;101147.34;5008507;28;20050;-84
2021/09/19 08:24:07;;;;;;;5.18;3.72;;;;;;;13.00;95.27;101148.75;4992237;28;20602;-82
2021/09/19 08:26:34;;;;;;;4.10;2.47;;;;;;;13.06;95.17;101147.75;5007698;28;20132;-82
2021/09/19 08:29:02;;;;;;;4.60;2.92;;;;;;;13.08;91.03;101151.25;5008519;28;20042;-82
2021/09/19 08:31:29;;;;;;;5.68;2.88;;;;;;;13.19;91.27;101143.91;4994936;28;20053;-80
2021/09/19 08:33:56;;;;;;;5.20;3.13;;;;;;;13.31;87.19;101150.75;4980745;28;20045;-85
2021/09/19 08:36:24;;;;;;;5.07;3.17;;;;;;;13.26;88.41;101149.97;5008878;28;20038;-84
2021/09/19 08:38:55;;;;;;;5.65;2.70;;;;;;;13.23;88.94;101151.81;4991410;28;20042;-84
2021/09/19 08:41:23;;;;;;;6.00;3.25;;;;;;;13.22;87.18;101159.81;4973729;28;20495;-84
2021/09/19 08:43:51;;;;;;;5.55;3.22;;;;;;;13.20;89.61;101166.91;4993956;28;20065;-81
2021/09/19 08:46:20;;;;;;;5.30;3.00;;;;;;;13.22;90.74;101165.97;4983870;28;20042;-81
2021/09/19 08:48:48;;;;;;;4.80;2.45;;;;;;;13.21;91.45;101158.94;4988475;28;20053;-82
2021/09/19 08:51:16;;;;;;;5.40;2.65;;;;;;;13.26;91.27;101166.75;4974907;28;20121;-83
2021/09/19 08:53:43;;;;;;;3.22;2.55;;;;;;;13.35;90.05;101163.03;5002997;28;20046;-82
2021/09/19 08:56:10;;;;;;;4.28;2.63;;;;;;;13.20;87.96;101165.16;4993852;28;20053;-83
2021/09/19 08:58:38;;;;;;;3.83;2.53;;;;;;;13.20;86.78;101166.91;5002674;28;20034;-84
2021/09/19 09:01:05;;;;;;;5.70;3.10;;;;;;;13.36;85.98;101159.44;4991762;28;20061;-82
2021/09/19 09:03:32;;;;;;;9.07;3.05;;;;;;;13.33;83.61;101164.84;4983652;28;20044;-81
2021/09/19 09:06:05;;;;;;;6.55;2.72;;;;;;;13.50;85.22;101170.63;4988124;28;20054;-83
2021/09/19 09:08:35;;;;;;;5.03;3.22;;;;;;;13.50;82.16;101166.19;4993475;28;20042;-83
2021/09/19 09:11:04;;;;;;;4.53;2.92;;;;;;;13.54;83.61;101167.00;5009445;28;20046;-85
2021/09/19 09:13:39;;;;;;;3.97;2.45;;;;;;;13.58;84.95;101171.31;4990243;28;20041;-84
2021/09/19 09:16:10;;;;;;;4.35;2.90;;;;;;;13.75;84.93;101168.22;5008001;28;20430;-84
2021/09/19 09:18:51;;;;;;;5.72;2.90;;;;;;;13.78;84.12;101170.78;4999700;28;20042;-84
2021/09/19 09:21:26;;;;;;;4.40;3.28;;;;;;;13.83;83.32;101174.22;5003099;28;20038;-86
2021/09/19 09:23:56;;;;;;;5.40;2.70;;;;;;;13.78;83.21;101176.09;4994736;28;20460;-84
2021/09/19 09:26:33;;;;;;;5.45;3.03;;;;;;;13.88;77.80;101174.97;4993674;28;20045;-84
2021/09/19 09:29:04;;;;;;;6.70;2.63;;;;;;;13.97;77.91;101174.75;4992925;28;21814;-85
2021/09/19 09:31:39;;;;;;;4.05;2.75;;;;;;;14.11;79.25;101166.38;5000674;28;20299;-86
2021/09/19 09:34:16;;;;;;;7.10;3.38;;;;;;;14.26;73.64;101167.75;5010277;28;20084;-84
2021/09/19 09:36:47;;;;;;;7.13;3.65;;;;;;;13.96;73.38;101164.16;4998737;28;20103;-85
2021/09/19 09:39:52;;;;;;;3.83;2.58;;;;;;;14.12;75.99;101167.25;5012757;28;20045;-85
2021/09/19 09:42:21;;;;;;;4.10;2.63;;;;;;;14.32;75.97;101170.25;4942609;28;20097;-86
2021/09/19 09:44:49;;;;;;;4.85;2.53;;;;;;;14.34;76.59;101165.75;4926849;28;20054;-84
2021/09/19 09:47:17;;;;;;;3.78;2.50;;;;;;;14.34;74.97;101165.75;4989865;28;20073;-84
2021/09/19 09:49:50;;;;;;;3.28;2.63;;;;;;;14.56;75.65;101168.72;5029566;28;20042;-84
2021/09/19 09:52:26;;;;;;;4.38;2.70;;;;;;;14.49;69.67;101162.72;5010776;28;20519;-85
2021/09/19 09:54:57;;;;;;;4.15;2.45;;;;;;;14.60;72.18;101168.56;4986590;28;20134;-85
2021/09/19 09:57:36;;;;;;;6.72;3.13;;;;;;;14.81;70.89;101166.22;5011523;28;20640;-84
2021/09/19 10:00:25;;;;;;;4.88;2.60;;;;;;;14.81;70.22;101174.19;5009692;28;20068;-86
2021/09/19 10:02:53;;;;;;;3.05;2.67;;;;;;;14.77;72.13;101167.22;4993818;28;20054;-83
2021/09/19 10:05:20;;;;;;;4.28;2.70;;;;;;;14.84;74.16;101174.97;5011847;28;20042;-84
2021/09/19 10:07:48;;;;;;;4.18;2.55;;;;;;;15.02;68.19;101165.56;4984065;28;20044;-82
2021/09/19 10:10:17;;;;;;;7.90;3.28;;;;;;;14.82;67.27;101162.66;5003666;28;20044;-82
2021/09/19 10:12:46;;;;;;;4.15;2.72;;;;;;;14.89;68.97;101166.88;5009762;28;20045;-83
2021/09/19 10:15:14;;;;;;;5.40;3.03;;;;;;;15.05;66.55;101160.16;5009194;28;20048;-82
2021/09/19 10:17:43;;;;;;;4.15;2.58;;;;;;;15.21;68.35;101150.75;5007535;28;20509;-81
2021/09/19 10:20:12;;;;;;;4.88;3.17;;;;;;;15.28;68.27;101148.75;4992284;28;20061;-82
2021/09/19 10:22:48;;;;;;;4.57;2.58;;;;;;;15.21;68.37;101157.88;5009559;28;20037;-82
2021/09/19 10:25:34;;;;;;;4.50;2.70;;;;;;;15.19;69.90;101163.25;4993842;28;20042;-82
2021/09/19 10:28:22;;;;;;;4.40;2.78;;;;;;;14.95;69.19;101161.34;4992125;28;20503;-83
2021/09/19 10:31:15;;;;;;;5.00;2.60;;;;;;;15.11;68.96;101165.28;5024369;28;20611;-83
2021/09/19 10:33:49;;;;;;;3.60;2.47;;;;;;;14.95;70.35;101164.00;5010850;28;20137;-84
2021/09/19 10:36:31;;;;;;;5.63;2.75;;;;;;;14.97;72.83;101159.53;4991096;28;20137;-84
2021/09/19 10:39:26;;;;;;;4.80;2.60;;;;;;;14.72;70.04;101171.81;5012614;28;20038;-86
2021/09/19 10:42:28;;;;;;;5.43;3.25;;;;;;;14.77;71.78;101168.09;5029364;28;20119;-85
2021/09/19 10:44:57;;;;;;;5.53;2.20;;;;;;;14.79;68.69;101168.03;4994328;28;20076;-83
2021/09/19 10:47:41;;;;;;;3.70;2.40;;;;;;;14.53;68.81;101166.13;5010255;28;20052;-85
2021/09/19 10:50:23;;;;;;;4.38;2.80;;;;;;;14.63;69.46;101163.19;4988221;28;20431;-84
2021/09/19 10:53:01;;;;;;;4.40;2.33;;;;;;;14.67;71.33;101171.94;5004154;28;20045;-84
2021/09/19 10:55:28;;;;;;;4.20;2.25;;;;;;;14.81;69.02;101161.78;4994371;28;20054;-84
2021/09/19 10:58:06;;;;;;;4.45;2.83;;;;;;;14.73;68.61;101158.47;5003600;28;20038;-84
2021/09/19 11:00:34;;;;;;;5.75;3.17;;;;;;;14.78;72.27;101155.66;4992593;28;20068;-84
2021/09/19 11:03:27;;;;;;;5.03;3.10;;;;;;;14.67;72.31;101160.44;4990057;28;20042;-84
2021/09/19 11:05:57;;;;;;;4.05;2.67;;;;;;;14.91;70.58;101149.06;4989528;28;20042;-83
2021/09/19 11:08:26;;;;;;;3.95;2.25;;;;;;;14.95;69.74;101163.13;4992243;28;20033;-84
2021/09/19 11:11:04;;;;;;;4.57;2.55;;;;;;;15.02;67.08;101164.69;5006515;28;20112;-83
2021/09/19 11:13:36;;;;;;;4.50;3.08;;;;;;;14.88;67.87;101152.69;4992188;28;20044;-85
2021/09/19 11:16:03;;;;;;;5.50;2.58;;;;;;;14.93;67.08;101160.53;5001687;28;20050;-84
2021/09/19 11:18:39;;;;;;;3.72;2.53;;;;;;;15.11;70.19;101159.94;5007221;28;20100;-85
2021/09/19 11:21:18;;;;;;;4.00;2.78;;;;;;;15.21;68.65;101155.19;5007083;28;20148;-83
2021/09/19 11:23:46;;;;;;;3.50;2.55;;;;;;;15.19;67.30;101157.91;5003025;28;20524;-82
2021/09/19 11:26:17;;;;;;;4.15;2.50;;;;;;;15.23;67.16;101148.06;5010443;28;20038;-83